sensor_id;sensor_type;location;lat;lon;timestamp;temperature;humidity
19943;DHT22;10133;50.956;17.276;2023-02-28T00:01:14;0.20;99.90
19943;DHT22;10133;50.956;17.276;2023-02-28T00:03:42;0.20;99.90
19943;DHT22;10133;50.956;17.276;2023-02-28T00:06:09;0.20;99.90
19943;DHT22;10133;50.956;17.276;2023-02-28T00:08:37;0.20;99.90
19943;DHT22;10133;50.956;17.276;2023-02-28T00:11:11;0.30;99.90
19943;DHT22;10133;50.956;17.276;2023-02-28T00:13:44;0.20;99.90
19943;DHT22;10133;50.956;17.276;2023-02-28T00:16:21;0.20;99.90
19943;DHT22;10133;50.956;17.276;2023-02-28T00:18:49;0.30;99.90
19943;DHT22;10133;50.956;17.276;2023-02-28T00:21:17;0.30;99.90
19943;DHT22;10133;50.956;17.276;2023-02-28T00:23:44;0.30;99.90
19943;DHT22;10133;50.956;17.276;2023-02-28T00:26:11;0.30;99.90
19943;DHT22;10133;50.956;17.276;2023-02-28T00:28:38;0.30;99.90
19943;DHT22;10133;50.956;17.276;2023-02-28T00:31:04;0.30;99.90
19943;DHT22;10133;50.956;17.276;2023-02-28T00:33:32;0.30;99.90
19943;DHT22;10133;50.956;17.276;2023-02-28T00:36:04;0.30;99.90
19943;DHT22;10133;50.956;17.276;2023-02-28T00:38:31;0.30;99.90
19943;DHT22;10133;50.956;17.276;2023-02-28T00:40:58;0.40;99.90
19943;DHT22;10133;50.956;17.276;2023-02-28T00:43:37;0.30;99.90
19943;DHT22;10133;50.956;17.276;2023-02-28T00:46:05;0.40;99.90
19943;DHT22;10133;50.956;17.276;2023-02-28T00:48:32;0.30;99.90
19943;DHT22;10133;50.956;17.276;2023-02-28T00:50:59;0.30;99.90
19943;DHT22;10133;50.956;17.276;2023-02-28T00:53:27;0.30;99.90
19943;DHT22;10133;50.956;17.276;2023-02-28T00:55:54;0.30;99.90
19943;DHT22;10133;50.956;17.276;2023-02-28T00:58:21;0.30;99.90
19943;DHT22;10133;50.956;17.276;2023-02-28T01:00:48;0.30;99.90
19943;DHT22;10133;50.956;17.276;2023-02-28T01:03:19;0.30;99.90
19943;DHT22;10133;50.956;17.276;2023-02-28T01:05:47;0.30;99.90
19943;DHT22;10133;50.956;17.276;2023-02-28T01:08:14;0.30;99.90
19943;DHT22;10133;50.956;17.276;2023-02-28T01:10:41;0.30;99.90
19943;DHT22;10133;50.956;17.276;2023-02-28T01:13:09;0.30;99.90
19943;DHT22;10133;50.956;17.276;2023-02-28T01:15:36;0.30;99.90
19943;DHT22;10133;50.956;17.276;2023-02-28T01:18:03;0.30;99.90
19943;DHT22;10133;50.956;17.276;2023-02-28T01:20:30;0.20;99.90
19943;DHT22;10133;50.956;17.276;2023-02-28T01:22:57;0.20;99.90
19943;DHT22;10133;50.956;17.276;2023-02-28T01:25:24;0.20;99.90
19943;DHT22;10133;50.956;17.276;2023-02-28T01:27:51;0.20;99.90
19943;DHT22;10133;50.956;17.276;2023-02-28T01:30:17;0.10;99.90
19943;DHT22;10133;50.956;17.276;2023-02-28T01:32:44;0.10;99.90
19943;DHT22;10133;50.956;17.276;2023-02-28T01:35:11;0.00;99.90
19943;DHT22;10133;50.956;17.276;2023-02-28T01:37:38;0.00;99.90
19943;DHT22;10133;50.956;17.276;2023-02-28T01:40:05;0.00;99.90
19943;DHT22;10133;50.956;17.276;2023-02-28T01:42:32;0.00;99.90
19943;DHT22;10133;50.956;17.276;2023-02-28T01:45:20;-0.10;99.90
19943;DHT22;10133;50.956;17.276;2023-02-28T01:47:50;-0.10;99.90
19943;DHT22;10133;50.956;17.276;2023-02-28T01:50:21;-0.10;99.90
19943;DHT22;10133;50.956;17.276;2023-02-28T01:52:49;-0.20;99.90
19943;DHT22;10133;50.956;17.276;2023-02-28T01:55:18;-0.30;99.90
19943;DHT22;10133;50.956;17.276;2023-02-28T01:57:50;-0.30;99.90
19943;DHT22;10133;50.956;17.276;2023-02-28T02:00:21;-0.30;99.90
19943;DHT22;10133;50.956;17.276;2023-02-28T02:02:51;-0.30;99.90
19943;DHT22;10133;50.956;17.276;2023-02-28T02:05:21;-0.40;99.90
19943;DHT22;10133;50.956;17.276;2023-02-28T02:07:51;-0.40;99.90
19943;DHT22;10133;50.956;17.276;2023-02-28T02:13:17;-0.40;99.90
19943;DHT22;10133;50.956;17.276;2023-02-28T02:32:37;-0.70;99.90
19943;DHT22;10133;50.956;17.276;2023-02-28T02:38:34;-0.70;99.90
19943;DHT22;10133;50.956;17.276;2023-02-28T02:46:19;-0.80;99.90
19943;DHT22;10133;50.956;17.276;2023-02-28T02:48:48;-0.90;99.90
19943;DHT22;10133;50.956;17.276;2023-02-28T02:51:19;-0.90;99.90
19943;DHT22;10133;50.956;17.276;2023-02-28T02:56:31;-1.00;99.90
19943;DHT22;10133;50.956;17.276;2023-02-28T02:59:03;-1.00;99.90
19943;DHT22;10133;50.956;17.276;2023-02-28T03:01:32;-1.10;99.90
19943;DHT22;10133;50.956;17.276;2023-02-28T03:04:04;-1.10;99.90
19943;DHT22;10133;50.956;17.276;2023-02-28T03:06:32;-1.20;99.90
19943;DHT22;10133;50.956;17.276;2023-02-28T03:09:00;-1.20;99.90
19943;DHT22;10133;50.956;17.276;2023-02-28T03:11:27;-1.20;99.90
19943;DHT22;10133;50.956;17.276;2023-02-28T03:14:37;-1.30;99.90
19943;DHT22;10133;50.956;17.276;2023-02-28T03:20:17;-1.30;99.90
19943;DHT22;10133;50.956;17.276;2023-02-28T03:23:11;-1.40;99.90
19943;DHT22;10133;50.956;17.276;2023-02-28T03:31:45;-1.40;99.90
19943;DHT22;10133;50.956;17.276;2023-02-28T03:34:23;-1.40;99.90
19943;DHT22;10133;50.956;17.276;2023-02-28T03:36:53;-1.40;99.90
19943;DHT22;10133;50.956;17.276;2023-02-28T03:39:37;-1.40;99.90
19943;DHT22;10133;50.956;17.276;2023-02-28T03:42:14;-1.40;99.90
19943;DHT22;10133;50.956;17.276;2023-02-28T03:44:45;-1.50;99.90
19943;DHT22;10133;50.956;17.276;2023-02-28T03:47:17;-1.50;99.90
19943;DHT22;10133;50.956;17.276;2023-02-28T03:50:01;-1.50;99.90
19943;DHT22;10133;50.956;17.276;2023-02-28T03:52:35;-1.60;99.90
19943;DHT22;10133;50.956;17.276;2023-02-28T03:55:08;-1.60;99.90
19943;DHT22;10133;50.956;17.276;2023-02-28T03:57:59;-1.60;99.90
19943;DHT22;10133;50.956;17.276;2023-02-28T04:00:33;-1.60;99.90
19943;DHT22;10133;50.956;17.276;2023-02-28T04:03:01;-1.60;99.90
19943;DHT22;10133;50.956;17.276;2023-02-28T04:05:29;-1.70;99.90
19943;DHT22;10133;50.956;17.276;2023-02-28T04:08:07;-1.70;99.90
19943;DHT22;10133;50.956;17.276;2023-02-28T04:10:34;-1.70;99.90
19943;DHT22;10133;50.956;17.276;2023-02-28T04:13:01;-1.70;99.90
19943;DHT22;10133;50.956;17.276;2023-02-28T04:15:28;-1.70;99.90
19943;DHT22;10133;50.956;17.276;2023-02-28T04:17:55;-1.70;99.90
19943;DHT22;10133;50.956;17.276;2023-02-28T04:20:22;-1.70;99.90
19943;DHT22;10133;50.956;17.276;2023-02-28T04:22:49;-1.80;99.90
19943;DHT22;10133;50.956;17.276;2023-02-28T04:25:15;-1.80;99.90
19943;DHT22;10133;50.956;17.276;2023-02-28T04:27:42;-1.80;99.90
19943;DHT22;10133;50.956;17.276;2023-02-28T04:30:11;-1.90;99.90
19943;DHT22;10133;50.956;17.276;2023-02-28T04:32:38;-1.90;99.90
19943;DHT22;10133;50.956;17.276;2023-02-28T04:35:06;-1.90;99.90
19943;DHT22;10133;50.956;17.276;2023-02-28T04:37:33;-1.90;99.90
19943;DHT22;10133;50.956;17.276;2023-02-28T04:40:01;-1.90;99.90
19943;DHT22;10133;50.956;17.276;2023-02-28T04:42:29;-1.90;99.90
19943;DHT22;10133;50.956;17.276;2023-02-28T04:45:03;-2.00;99.90
19943;DHT22;10133;50.956;17.276;2023-02-28T04:47:30;-2.00;99.90
19943;DHT22;10133;50.956;17.276;2023-02-28T04:49:58;-2.00;99.90
19943;DHT22;10133;50.956;17.276;2023-02-28T04:52:27;-2.00;99.90
19943;DHT22;10133;50.956;17.276;2023-02-28T04:54:54;-2.00;99.90
19943;DHT22;10133;50.956;17.276;2023-02-28T04:57:21;-2.00;99.90
19943;DHT22;10133;50.956;17.276;2023-02-28T04:59:48;-2.00;99.90
19943;DHT22;10133;50.956;17.276;2023-02-28T05:02:15;-2.00;99.90
19943;DHT22;10133;50.956;17.276;2023-02-28T05:04:42;-2.00;99.90
19943;DHT22;10133;50.956;17.276;2023-02-28T05:07:09;-2.00;99.90
19943;DHT22;10133;50.956;17.276;2023-02-28T05:09:36;-2.00;99.90
19943;DHT22;10133;50.956;17.276;2023-02-28T05:12:03;-2.00;99.90
19943;DHT22;10133;50.956;17.276;2023-02-28T05:14:30;-2.00;99.90
19943;DHT22;10133;50.956;17.276;2023-02-28T05:16:57;-2.10;99.90
19943;DHT22;10133;50.956;17.276;2023-02-28T05:19:24;-2.10;99.90
19943;DHT22;10133;50.956;17.276;2023-02-28T05:21:53;-2.10;99.90
19943;DHT22;10133;50.956;17.276;2023-02-28T05:24:21;-2.10;99.90
19943;DHT22;10133;50.956;17.276;2023-02-28T05:26:52;-2.00;99.90
19943;DHT22;10133;50.956;17.276;2023-02-28T05:29:19;-2.00;99.90
19943;DHT22;10133;50.956;17.276;2023-02-28T05:31:46;-2.00;99.90
19943;DHT22;10133;50.956;17.276;2023-02-28T05:34:14;-2.00;99.90
19943;DHT22;10133;50.956;17.276;2023-02-28T05:36:42;-2.00;99.90
19943;DHT22;10133;50.956;17.276;2023-02-28T05:39:09;-2.00;99.90
19943;DHT22;10133;50.956;17.276;2023-02-28T05:41:41;-2.00;99.90
19943;DHT22;10133;50.956;17.276;2023-02-28T05:44:09;-2.00;99.90
19943;DHT22;10133;50.956;17.276;2023-02-28T05:46:36;-2.00;99.90
19943;DHT22;10133;50.956;17.276;2023-02-28T05:49:03;-1.90;99.90
19943;DHT22;10133;50.956;17.276;2023-02-28T05:51:30;-2.00;99.90
19943;DHT22;10133;50.956;17.276;2023-02-28T05:54:01;-1.90;99.90
19943;DHT22;10133;50.956;17.276;2023-02-28T05:56:28;-1.90;99.90
19943;DHT22;10133;50.956;17.276;2023-02-28T05:58:55;-1.90;99.90
19943;DHT22;10133;50.956;17.276;2023-02-28T06:01:37;-1.90;99.90
19943;DHT22;10133;50.956;17.276;2023-02-28T06:04:08;-1.80;99.90
19943;DHT22;10133;50.956;17.276;2023-02-28T06:06:48;-1.80;99.90
19943;DHT22;10133;50.956;17.276;2023-02-28T06:09:16;-1.70;99.90
19943;DHT22;10133;50.956;17.276;2023-02-28T06:11:43;-1.70;99.90
19943;DHT22;10133;50.956;17.276;2023-02-28T06:14:16;-1.60;99.90
19943;DHT22;10133;50.956;17.276;2023-02-28T06:16:43;-1.60;99.90
19943;DHT22;10133;50.956;17.276;2023-02-28T06:19:11;-1.50;99.90
19943;DHT22;10133;50.956;17.276;2023-02-28T06:21:37;-1.50;99.90
19943;DHT22;10133;50.956;17.276;2023-02-28T06:24:05;-1.40;99.90
19943;DHT22;10133;50.956;17.276;2023-02-28T06:26:32;-1.30;99.90
19943;DHT22;10133;50.956;17.276;2023-02-28T06:28:59;-1.20;99.90
19943;DHT22;10133;50.956;17.276;2023-02-28T06:31:27;-1.00;99.90
19943;DHT22;10133;50.956;17.276;2023-02-28T06:33:56;-0.90;99.90
19943;DHT22;10133;50.956;17.276;2023-02-28T06:36:23;-0.70;99.90
19943;DHT22;10133;50.956;17.276;2023-02-28T06:38:50;-0.50;99.90
19943;DHT22;10133;50.956;17.276;2023-02-28T06:41:25;-0.20;99.90
19943;DHT22;10133;50.956;17.276;2023-02-28T06:43:53;0.20;99.90
19943;DHT22;10133;50.956;17.276;2023-02-28T06:46:20;0.60;99.90
19943;DHT22;10133;50.956;17.276;2023-02-28T06:48:47;1.00;99.90
19943;DHT22;10133;50.956;17.276;2023-02-28T06:51:19;1.40;99.90
19943;DHT22;10133;50.956;17.276;2023-02-28T06:53:49;1.80;99.90
19943;DHT22;10133;50.956;17.276;2023-02-28T06:56:17;2.30;99.90
19943;DHT22;10133;50.956;17.276;2023-02-28T06:58:50;2.90;99.90
19943;DHT22;10133;50.956;17.276;2023-02-28T07:01:19;3.70;99.90
19943;DHT22;10133;50.956;17.276;2023-02-28T07:03:46;4.50;99.90
19943;DHT22;10133;50.956;17.276;2023-02-28T07:06:19;5.30;99.90
19943;DHT22;10133;50.956;17.276;2023-02-28T07:08:47;6.10;99.90
19943;DHT22;10133;50.956;17.276;2023-02-28T07:11:14;7.00;99.90
19943;DHT22;10133;50.956;17.276;2023-02-28T07:13:41;8.00;99.90
19943;DHT22;10133;50.956;17.276;2023-02-28T07:16:10;9.10;99.90
19943;DHT22;10133;50.956;17.276;2023-02-28T07:18:38;9.90;98.90
19943;DHT22;10133;50.956;17.276;2023-02-28T07:21:07;10.90;95.30
19943;DHT22;10133;50.956;17.276;2023-02-28T07:23:35;11.90;90.70
19943;DHT22;10133;50.956;17.276;2023-02-28T07:26:02;12.80;83.00
19943;DHT22;10133;50.956;17.276;2023-02-28T07:28:29;13.90;77.30
19943;DHT22;10133;50.956;17.276;2023-02-28T07:30:56;15.10;70.10
19943;DHT22;10133;50.956;17.276;2023-02-28T07:33:22;16.40;65.30
19943;DHT22;10133;50.956;17.276;2023-02-28T07:35:50;17.50;58.00
19943;DHT22;10133;50.956;17.276;2023-02-28T07:38:17;18.60;54.50
19943;DHT22;10133;50.956;17.276;2023-02-28T07:40:44;19.60;50.40
19943;DHT22;10133;50.956;17.276;2023-02-28T07:43:11;20.40;47.60
19943;DHT22;10133;50.956;17.276;2023-02-28T07:45:38;21.30;45.50
19943;DHT22;10133;50.956;17.276;2023-02-28T07:48:05;22.10;43.70
19943;DHT22;10133;50.956;17.276;2023-02-28T07:50:32;22.70;41.60
19943;DHT22;10133;50.956;17.276;2023-02-28T07:52:59;23.10;39.50
19943;DHT22;10133;50.956;17.276;2023-02-28T07:55:26;23.80;40.30
19943;DHT22;10133;50.956;17.276;2023-02-28T07:57:53;24.30;39.20
19943;DHT22;10133;50.956;17.276;2023-02-28T08:00:21;24.80;37.80
19943;DHT22;10133;50.956;17.276;2023-02-28T08:02:49;25.50;36.90
19943;DHT22;10133;50.956;17.276;2023-02-28T08:05:16;25.90;36.30
19943;DHT22;10133;50.956;17.276;2023-02-28T08:07:46;26.50;35.70
19943;DHT22;10133;50.956;17.276;2023-02-28T08:10:14;27.30;34.40
19943;DHT22;10133;50.956;17.276;2023-02-28T08:12:41;27.80;33.80
19943;DHT22;10133;50.956;17.276;2023-02-28T08:15:08;28.30;33.70
19943;DHT22;10133;50.956;17.276;2023-02-28T08:17:35;28.60;32.00
19943;DHT22;10133;50.956;17.276;2023-02-28T08:20:02;29.00;32.00
19943;DHT22;10133;50.956;17.276;2023-02-28T08:22:30;29.10;29.80
19943;DHT22;10133;50.956;17.276;2023-02-28T08:24:57;29.00;29.90
19943;DHT22;10133;50.956;17.276;2023-02-28T08:27:24;29.10;30.30
19943;DHT22;10133;50.956;17.276;2023-02-28T08:29:51;29.40;30.30
19943;DHT22;10133;50.956;17.276;2023-02-28T08:32:19;29.70;29.90
19943;DHT22;10133;50.956;17.276;2023-02-28T08:34:55;29.70;29.20
19943;DHT22;10133;50.956;17.276;2023-02-28T08:37:23;30.00;29.80
19943;DHT22;10133;50.956;17.276;2023-02-28T08:39:50;30.30;29.90
19943;DHT22;10133;50.956;17.276;2023-02-28T08:42:20;30.70;29.60
19943;DHT22;10133;50.956;17.276;2023-02-28T08:44:47;31.10;28.80
19943;DHT22;10133;50.956;17.276;2023-02-28T08:47:14;31.30;28.20
19943;DHT22;10133;50.956;17.276;2023-02-28T08:49:41;31.50;28.40
19943;DHT22;10133;50.956;17.276;2023-02-28T08:52:08;31.50;28.50
19943;DHT22;10133;50.956;17.276;2023-02-28T08:54:35;31.80;28.30
19943;DHT22;10133;50.956;17.276;2023-02-28T08:57:03;32.00;27.90
19943;DHT22;10133;50.956;17.276;2023-02-28T08:59:30;32.30;28.90
19943;DHT22;10133;50.956;17.276;2023-02-28T09:01:57;32.70;29.00
19943;DHT22;10133;50.956;17.276;2023-02-28T09:04:24;33.20;28.70
19943;DHT22;10133;50.956;17.276;2023-02-28T09:06:51;33.60;28.10
19943;DHT22;10133;50.956;17.276;2023-02-28T09:09:18;34.20;28.60
19943;DHT22;10133;50.956;17.276;2023-02-28T09:11:45;34.30;27.00
19943;DHT22;10133;50.956;17.276;2023-02-28T09:14:12;34.30;27.10
19943;DHT22;10133;50.956;17.276;2023-02-28T09:16:39;34.40;27.70
19943;DHT22;10133;50.956;17.276;2023-02-28T09:19:06;34.70;27.50
19943;DHT22;10133;50.956;17.276;2023-02-28T09:21:32;35.00;27.20
19943;DHT22;10133;50.956;17.276;2023-02-28T09:23:59;35.10;27.20
19943;DHT22;10133;50.956;17.276;2023-02-28T09:26:27;35.10;26.60
19943;DHT22;10133;50.956;17.276;2023-02-28T09:29:08;35.10;26.10
19943;DHT22;10133;50.956;17.276;2023-02-28T09:31:35;34.80;26.00
19943;DHT22;10133;50.956;17.276;2023-02-28T09:34:04;34.40;26.30
19943;DHT22;10133;50.956;17.276;2023-02-28T09:36:31;34.50;26.50
19943;DHT22;10133;50.956;17.276;2023-02-28T09:39:11;34.40;25.80
19943;DHT22;10133;50.956;17.276;2023-02-28T09:41:44;34.20;26.20
19943;DHT22;10133;50.956;17.276;2023-02-28T09:44:33;34.30;26.20
19943;DHT22;10133;50.956;17.276;2023-02-28T09:47:25;34.30;26.20
19943;DHT22;10133;50.956;17.276;2023-02-28T09:49:54;34.50;26.10
19943;DHT22;10133;50.956;17.276;2023-02-28T09:52:29;34.70;26.40
19943;DHT22;10133;50.956;17.276;2023-02-28T09:55:18;34.50;25.50
19943;DHT22;10133;50.956;17.276;2023-02-28T09:57:46;34.70;27.10
19943;DHT22;10133;50.956;17.276;2023-02-28T10:00:20;35.00;26.00
19943;DHT22;10133;50.956;17.276;2023-02-28T10:03:09;35.20;26.90
19943;DHT22;10133;50.956;17.276;2023-02-28T10:05:54;35.20;26.20
19943;DHT22;10133;50.956;17.276;2023-02-28T10:08:27;35.30;26.00
19943;DHT22;10133;50.956;17.276;2023-02-28T10:10:58;35.10;25.70
19943;DHT22;10133;50.956;17.276;2023-02-28T10:13:36;34.50;25.30
19943;DHT22;10133;50.956;17.276;2023-02-28T10:16:09;34.20;26.00
19943;DHT22;10133;50.956;17.276;2023-02-28T10:19:28;34.20;26.20
19943;DHT22;10133;50.956;17.276;2023-02-28T10:24:14;34.70;26.10
19943;DHT22;10133;50.956;17.276;2023-02-28T10:26:47;34.40;25.50
19943;DHT22;10133;50.956;17.276;2023-02-28T10:29:14;33.70;25.20
19943;DHT22;10133;50.956;17.276;2023-02-28T10:31:42;33.00;26.20
19943;DHT22;10133;50.956;17.276;2023-02-28T10:34:12;33.00;26.50
19943;DHT22;10133;50.956;17.276;2023-02-28T10:36:40;33.10;26.80
19943;DHT22;10133;50.956;17.276;2023-02-28T10:42:01;34.10;27.30
19943;DHT22;10133;50.956;17.276;2023-02-28T10:44:28;34.30;27.20
19943;DHT22;10133;50.956;17.276;2023-02-28T10:46:55;34.70;27.20
19943;DHT22;10133;50.956;17.276;2023-02-28T10:49:27;34.80;26.70
19943;DHT22;10133;50.956;17.276;2023-02-28T10:51:58;35.00;26.60
19943;DHT22;10133;50.956;17.276;2023-02-28T10:54:35;34.80;26.90
19943;DHT22;10133;50.956;17.276;2023-02-28T10:57:18;34.80;26.80
19943;DHT22;10133;50.956;17.276;2023-02-28T10:59:45;34.60;26.60
19943;DHT22;10133;50.956;17.276;2023-02-28T11:02:35;34.60;26.70
19943;DHT22;10133;50.956;17.276;2023-02-28T11:05:34;34.50;26.80
19943;DHT22;10133;50.956;17.276;2023-02-28T11:08:17;34.50;26.50
19943;DHT22;10133;50.956;17.276;2023-02-28T11:10:48;34.40;26.40
19943;DHT22;10133;50.956;17.276;2023-02-28T11:13:20;34.40;26.80
19943;DHT22;10133;50.956;17.276;2023-02-28T11:15:57;34.30;26.40
19943;DHT22;10133;50.956;17.276;2023-02-28T11:21:00;33.80;26.30
19943;DHT22;10133;50.956;17.276;2023-02-28T11:23:30;33.50;26.80
19943;DHT22;10133;50.956;17.276;2023-02-28T11:26:01;33.10;26.90
19943;DHT22;10133;50.956;17.276;2023-02-28T11:28:34;32.40;27.20
19943;DHT22;10133;50.956;17.276;2023-02-28T11:33:49;30.50;27.20
19943;DHT22;10133;50.956;17.276;2023-02-28T11:36:30;29.50;27.60
19943;DHT22;10133;50.956;17.276;2023-02-28T11:39:01;28.50;28.00
19943;DHT22;10133;50.956;17.276;2023-02-28T11:47:42;25.40;29.30
19943;DHT22;10133;50.956;17.276;2023-02-28T11:52:52;23.70;31.80
19943;DHT22;10133;50.956;17.276;2023-02-28T11:55:32;22.70;33.90
19943;DHT22;10133;50.956;17.276;2023-02-28T11:58:26;21.60;34.90
19943;DHT22;10133;50.956;17.276;2023-02-28T12:01:18;19.90;36.40
19943;DHT22;10133;50.956;17.276;2023-02-28T12:03:53;17.80;38.50
19943;DHT22;10133;50.956;17.276;2023-02-28T12:15:02;12.60;47.10
19943;DHT22;10133;50.956;17.276;2023-02-28T12:18:00;12.10;48.80
19943;DHT22;10133;50.956;17.276;2023-02-28T12:28:49;10.60;51.80
19943;DHT22;10133;50.956;17.276;2023-02-28T12:31:21;10.30;52.30
19943;DHT22;10133;50.956;17.276;2023-02-28T12:34:15;10.10;54.00
19943;DHT22;10133;50.956;17.276;2023-02-28T12:36:46;9.90;54.60
19943;DHT22;10133;50.956;17.276;2023-02-28T12:39:23;9.70;54.00
19943;DHT22;10133;50.956;17.276;2023-02-28T12:42:07;9.50;54.60
19943;DHT22;10133;50.956;17.276;2023-02-28T12:44:44;9.30;54.90
19943;DHT22;10133;50.956;17.276;2023-02-28T12:47:17;9.20;54.60
19943;DHT22;10133;50.956;17.276;2023-02-28T12:52:33;9.00;55.60
19943;DHT22;10133;50.956;17.276;2023-02-28T13:00:18;8.80;56.10
19943;DHT22;10133;50.956;17.276;2023-02-28T13:11:44;8.60;58.40
19943;DHT22;10133;50.956;17.276;2023-02-28T13:22:46;8.40;58.30
19943;DHT22;10133;50.956;17.276;2023-02-28T13:27:51;8.50;61.90
19943;DHT22;10133;50.956;17.276;2023-02-28T13:36:30;9.10;64.40
19943;DHT22;10133;50.956;17.276;2023-02-28T13:39:01;9.60;62.30
19943;DHT22;10133;50.956;17.276;2023-02-28T13:44:21;10.50;58.30
19943;DHT22;10133;50.956;17.276;2023-02-28T14:09:01;10.60;61.80
19943;DHT22;10133;50.956;17.276;2023-02-28T14:11:35;10.50;61.80
19943;DHT22;10133;50.956;17.276;2023-02-28T14:14:04;10.30;62.00
19943;DHT22;10133;50.956;17.276;2023-02-28T14:16:46;10.10;62.90
19943;DHT22;10133;50.956;17.276;2023-02-28T14:19:21;9.80;63.00
19943;DHT22;10133;50.956;17.276;2023-02-28T14:37:49;8.20;64.60
19943;DHT22;10133;50.956;17.276;2023-02-28T14:40:27;8.00;65.30
19943;DHT22;10133;50.956;17.276;2023-02-28T14:43:01;7.80;66.00
19943;DHT22;10133;50.956;17.276;2023-02-28T14:45:31;7.60;67.00
19943;DHT22;10133;50.956;17.276;2023-02-28T14:48:00;7.50;67.30
19943;DHT22;10133;50.956;17.276;2023-02-28T14:50:35;7.30;67.70
19943;DHT22;10133;50.956;17.276;2023-02-28T14:53:03;7.10;68.60
19943;DHT22;10133;50.956;17.276;2023-02-28T14:55:35;7.00;70.20
19943;DHT22;10133;50.956;17.276;2023-02-28T14:58:04;6.80;70.70
19943;DHT22;10133;50.956;17.276;2023-02-28T15:00:36;6.70;71.30
19943;DHT22;10133;50.956;17.276;2023-02-28T15:08:20;6.20;73.80
19943;DHT22;10133;50.956;17.276;2023-02-28T15:10:59;6.10;73.40
19943;DHT22;10133;50.956;17.276;2023-02-28T15:13:42;6.00;73.90
19943;DHT22;10133;50.956;17.276;2023-02-28T15:16:13;5.90;73.50
19943;DHT22;10133;50.956;17.276;2023-02-28T15:18:55;5.80;73.70
19943;DHT22;10133;50.956;17.276;2023-02-28T15:21:32;5.70;75.00
19943;DHT22;10133;50.956;17.276;2023-02-28T15:24:07;5.50;75.60
19943;DHT22;10133;50.956;17.276;2023-02-28T15:26:42;5.40;76.30
19943;DHT22;10133;50.956;17.276;2023-02-28T15:29:20;5.30;76.90
19943;DHT22;10133;50.956;17.276;2023-02-28T15:32:04;5.20;77.30
19943;DHT22;10133;50.956;17.276;2023-02-28T15:34:40;5.10;78.60
19943;DHT22;10133;50.956;17.276;2023-02-28T15:37:52;5.00;79.00
19943;DHT22;10133;50.956;17.276;2023-02-28T15:40:28;5.00;79.70
19943;DHT22;10133;50.956;17.276;2023-02-28T15:48:54;4.80;80.40
19943;DHT22;10133;50.956;17.276;2023-02-28T15:51:34;4.70;80.80
19943;DHT22;10133;50.956;17.276;2023-02-28T15:54:06;4.60;81.20
19943;DHT22;10133;50.956;17.276;2023-02-28T15:56:43;4.50;82.40
19943;DHT22;10133;50.956;17.276;2023-02-28T15:59:26;4.50;82.70
19943;DHT22;10133;50.956;17.276;2023-02-28T16:04:36;4.30;82.30
19943;DHT22;10133;50.956;17.276;2023-02-28T16:07:05;4.20;82.60
19943;DHT22;10133;50.956;17.276;2023-02-28T16:09:32;4.20;83.00
19943;DHT22;10133;50.956;17.276;2023-02-28T16:12:02;4.10;83.60
19943;DHT22;10133;50.956;17.276;2023-02-28T16:14:30;4.00;84.40
19943;DHT22;10133;50.956;17.276;2023-02-28T16:17:03;3.90;84.90
19943;DHT22;10133;50.956;17.276;2023-02-28T16:19:31;3.80;85.40
19943;DHT22;10133;50.956;17.276;2023-02-28T16:22:00;3.70;86.40
19943;DHT22;10133;50.956;17.276;2023-02-28T16:24:27;3.70;87.60
19943;DHT22;10133;50.956;17.276;2023-02-28T16:26:55;3.60;89.20
19943;DHT22;10133;50.956;17.276;2023-02-28T16:29:29;3.50;90.20
19943;DHT22;10133;50.956;17.276;2023-02-28T16:31:57;4.20;91.20
19943;DHT22;10133;50.956;17.276;2023-02-28T16:34:24;4.40;91.50
19943;DHT22;10133;50.956;17.276;2023-02-28T16:36:51;3.30;95.30
19943;DHT22;10133;50.956;17.276;2023-02-28T16:39:18;3.10;92.60
19943;DHT22;10133;50.956;17.276;2023-02-28T16:41:50;3.10;95.20
19943;DHT22;10133;50.956;17.276;2023-02-28T16:46:53;2.80;95.80
19943;DHT22;10133;50.956;17.276;2023-02-28T16:49:20;2.90;99.90
19943;DHT22;10133;50.956;17.276;2023-02-28T16:51:47;4.20;98.70
19943;DHT22;10133;50.956;17.276;2023-02-28T16:54:14;2.20;99.90
19943;DHT22;10133;50.956;17.276;2023-02-28T16:56:44;2.60;99.90
19943;DHT22;10133;50.956;17.276;2023-02-28T16:59:11;2.60;99.90
19943;DHT22;10133;50.956;17.276;2023-02-28T17:01:39;2.60;99.90
19943;DHT22;10133;50.956;17.276;2023-02-28T17:04:08;2.00;99.90
19943;DHT22;10133;50.956;17.276;2023-02-28T17:09:02;2.40;99.90
19943;DHT22;10133;50.956;17.276;2023-02-28T17:11:29;2.20;99.90
19943;DHT22;10133;50.956;17.276;2023-02-28T17:16:29;2.20;99.90
19943;DHT22;10133;50.956;17.276;2023-02-28T17:19:00;2.10;99.90
19943;DHT22;10133;50.956;17.276;2023-02-28T17:21:28;3.50;99.90
19943;DHT22;10133;50.956;17.276;2023-02-28T17:23:55;3.40;99.90
19943;DHT22;10133;50.956;17.276;2023-02-28T17:28:58;2.10;99.90
19943;DHT22;10133;50.956;17.276;2023-02-28T17:31:26;1.60;99.90
19943;DHT22;10133;50.956;17.276;2023-02-28T17:33:54;1.80;99.90
19943;DHT22;10133;50.956;17.276;2023-02-28T17:36:24;1.60;99.90
19943;DHT22;10133;50.956;17.276;2023-02-28T17:38:53;1.60;99.90
19943;DHT22;10133;50.956;17.276;2023-02-28T17:41:22;1.50;99.90
19943;DHT22;10133;50.956;17.276;2023-02-28T17:43:49;1.30;99.90
19943;DHT22;10133;50.956;17.276;2023-02-28T17:46:22;1.20;99.90
19943;DHT22;10133;50.956;17.276;2023-02-28T17:48:51;1.10;99.90
19943;DHT22;10133;50.956;17.276;2023-02-28T17:51:20;1.00;99.90
19943;DHT22;10133;50.956;17.276;2023-02-28T17:53:47;0.90;99.90
19943;DHT22;10133;50.956;17.276;2023-02-28T17:56:23;0.80;99.90
19943;DHT22;10133;50.956;17.276;2023-02-28T17:58:52;0.80;99.90
19943;DHT22;10133;50.956;17.276;2023-02-28T18:01:20;0.80;99.90
19943;DHT22;10133;50.956;17.276;2023-02-28T18:03:47;0.80;99.90
19943;DHT22;10133;50.956;17.276;2023-02-28T18:06:18;0.70;99.90
19943;DHT22;10133;50.956;17.276;2023-02-28T18:08:46;0.70;99.90
19943;DHT22;10133;50.956;17.276;2023-02-28T18:11:13;0.70;99.90
19943;DHT22;10133;50.956;17.276;2023-02-28T18:13:48;0.70;99.90
19943;DHT22;10133;50.956;17.276;2023-02-28T18:16:16;0.70;99.90
19943;DHT22;10133;50.956;17.276;2023-02-28T18:18:44;0.70;99.90
19943;DHT22;10133;50.956;17.276;2023-02-28T18:21:13;0.70;99.90
19943;DHT22;10133;50.956;17.276;2023-02-28T18:23:42;0.70;99.90
19943;DHT22;10133;50.956;17.276;2023-02-28T18:26:15;0.60;99.90
19943;DHT22;10133;50.956;17.276;2023-02-28T18:28:43;0.60;99.90
19943;DHT22;10133;50.956;17.276;2023-02-28T18:31:13;0.60;99.90
19943;DHT22;10133;50.956;17.276;2023-02-28T18:33:43;0.60;99.90
19943;DHT22;10133;50.956;17.276;2023-02-28T18:36:10;0.60;99.90
19943;DHT22;10133;50.956;17.276;2023-02-28T18:38:37;0.60;99.90
19943;DHT22;10133;50.956;17.276;2023-02-28T18:41:05;0.50;99.90